Whittier, AK (99693)

10:49 AM AKDT on September 04, 2015 (GMT -0800)
Portage Glacier | | Change Station
CLOSE
Current Station
Airport
Location: Portage Glacier,
Elevation: 102 ft
Nearby Weather Stations
Active Advisory: Areal Flood Advisory Active Notice: Record Report

Elev 102 ft 60.78 °N, 148.84 °W | Updated 16 minutes ago

Overcast
Overcast
49 °F
Feels Like 49 °F
N
6
Wind Variable Wind from Variable

Today
High -- | Low -- °F
--% Chance of Precip.
Yesterday
High -- | Low -- °F
Precip. -- in
6:54 AM 8:50 PM
Waning Gibbous, 57% visible
Pressure 29.85 in
Visibility 10.0 miles
Clouds Mostly Cloudy 3100 ft
Overcast 4900 ft
Dew Point 47 °F
Humidity 93%
Rainfall 0.02 in
Snow Depth Not available.
UV 1 out of 12
Pollen Not available.
Air Quality Not available.
Flu Activity Not available.
SPECI PATO 041833Z AUTO VRB05KT 10SM BKN031 OVC049 09/08 A2985 RMK AO2 RAE25 P0000 T00940083 TSNO
Pressure 29.85 in
Visibility 10.0 miles
Clouds Mostly Cloudy 3100 ft
Overcast 4900 ft
Dew Point 47 °F
Humidity 93%
Rainfall 0.02 in
Snow Depth Not available.
UV 1 out of 12
Pollen Not available.
Air Quality Not available.
Flu Activity Not available.
SPECI PATO 041833Z AUTO VRB05KT 10SM BKN031 OVC049 09/08 A2985 RMK AO2 RAE25 P0000 T00940083 TSNO

10-Day Weather Forecast

×

Almanac

Astronomy

Sep. 04, 2015 Rise Set
Actual Time
Civil Twilight
Nautical Twilight
Astronomical Twilight
Moon
Length of Visible Light
Length of Day
Tomorrow will be .
, % of the Moon is Illuminated

Today's Extremes

State Highs State Lows

Community

WunderPhotos

Upload Photos

1,852,262 photos uploaded!

WunderBlogs® & News

Nearby

Air Quality

  Air Quality AQ Index Pollutant
Not available.

Snow Depth

Station Depth Elevation

Earthquake Activity

City Distance Mag. Time & Date
Minimum magnitude displayed is 2.5.

Coastal Water Temperatures

Place Temperature

Stations

Nearby Weather Stations

Station Location Temp. Windchill Dew Point Humidity Wind Precip. Elev Updated Type
                   
Areal Flood Advisory
Statement as of 7:15 AM AKDT on September 04, 2015

... The Flood Advisory remains in effect until 145 PM akdt Friday for
low-lying areas around Kenai Lake including the Primrose
campground...

At 700 am akdt... water levels on the snow river and Kenai Lake are
dropping... however there is likely still some water covering the
Road to Primrose campground and other low-lying areas at this time.
Conditions will improve throughout the day as water levels continue
to drop.

Precautionary/preparedness actions...

Most flood deaths occur in automobiles. Never drive your vehicle into
areas where the water covers the roadway. Flood waters are usually
deeper than they appear. Just one foot of flowing water is powerful
enough to sweep vehicles off the Road. When encountering flooded
roads make the smart choice... turn around... dont drown.


Lat... Lon 6050 14974 6040 14960 6042 14936 6033 14933
      6033 14940 6038 14940 6038 14968 6046 14975
      6050 14982


Dixon